createdAt,value
2023-03-19T00:06:45.348Z,98914.31
2023-03-19T00:16:47.234Z,98918.03
2023-03-19T00:26:48.648Z,98908.13
2023-03-19T00:36:50.510Z,98903.56
2023-03-19T00:46:52.186Z,98919.50
2023-03-19T00:56:53.574Z,98912.88
2023-03-19T01:06:55.530Z,98911.59
2023-03-19T01:16:57.407Z,98913.09
2023-03-19T01:26:58.939Z,98905.88
2023-03-19T01:37:00.380Z,98907.72
2023-03-19T01:47:03.585Z,98902.97
2023-03-19T01:57:12.381Z,98908.97
2023-03-19T02:07:13.818Z,98895.13
2023-03-19T02:17:15.752Z,98893.28
2023-03-19T02:27:17.138Z,98893.28
2023-03-19T02:37:24.662Z,98896.16
2023-03-19T02:47:26.326Z,98895.53
2023-03-19T02:57:27.850Z,98894.72
2023-03-19T03:07:29.227Z,98897.63
2023-03-19T03:17:30.598Z,98906.72
2023-03-19T03:27:32.320Z,98899.28
2023-03-19T03:37:33.708Z,98897.63
2023-03-19T03:47:36.249Z,98916.44
2023-03-19T03:57:37.667Z,98917.47
2023-03-19T04:07:39.546Z,98923.88
2023-03-19T04:17:41.622Z,98920.16
2023-03-19T04:27:42.979Z,98922.84
2023-03-19T04:37:48.293Z,98934.84
2023-03-19T04:47:50.113Z,98930.28
2023-03-19T04:57:51.568Z,98942.28
2023-03-19T05:07:52.993Z,98951.56
2023-03-19T05:17:54.361Z,98957.16
2023-03-19T05:27:56.078Z,98952.19
2023-03-19T05:37:57.666Z,98970.56
2023-03-19T05:47:59.031Z,98971.59
2023-03-19T05:58:00.428Z,98975.69
2023-03-19T06:08:01.869Z,98987.88
2023-03-19T06:18:03.516Z,98995.31
2023-03-19T06:28:05.466Z,99005.47
2023-03-19T06:38:07.310Z,99005.06
2023-03-19T06:48:08.717Z,99020.16
2023-03-19T06:58:11.710Z,99023.47
2023-03-19T07:08:13.231Z,99032.56
2023-03-19T07:18:14.617Z,99031.94
2023-03-19T07:28:16.352Z,99050.16
2023-03-19T07:38:17.886Z,99062.97
2023-03-19T07:48:19.313Z,99072.06
2023-03-19T07:58:20.692Z,99070.19
2023-03-19T08:08:22.271Z,99064.19
2023-03-19T08:18:24.073Z,99071.63
2023-03-19T08:28:25.562Z,99074.06
2023-03-19T08:38:26.970Z,99086.66
2023-03-19T08:48:28.482Z,99095.97
2023-03-19T08:58:30.111Z,99098.22
2023-03-19T09:08:31.801Z,99105.25
2023-03-19T09:18:33.943Z,99110.88
2023-03-19T09:28:35.794Z,99112.66
2023-03-19T09:38:37.391Z,99116.09
2023-03-19T09:48:58.031Z,99128.56
2023-03-19T09:58:59.909Z,99129.34
2023-03-19T10:09:16.197Z,99128.94
2023-03-19T10:19:22.291Z,99130.88
2023-03-19T10:29:24.413Z,99140.31
2023-03-19T10:39:26.124Z,99151.78
2023-03-19T10:49:27.936Z,99150.38
2023-03-19T10:59:33.773Z,99154.88
2023-03-19T11:09:39.627Z,99157.41
2023-03-19T11:19:42.123Z,99147.41
2023-03-19T11:29:44.585Z,99152.53
2023-03-19T11:40:07.779Z,99151.75
2023-03-19T11:50:30.591Z,99154.72
2023-03-19T12:00:50.859Z,99157.47
2023-03-19T12:11:13.992Z,99141.38
2023-03-19T12:21:39.181Z,99141.69
2023-03-19T12:31:49.339Z,99145.63
2023-03-19T12:41:51.353Z,99132.53
2023-03-19T12:51:56.270Z,99128.50
2023-03-19T13:02:01.898Z,99135.84
2023-03-19T13:12:07.592Z,99138.19
2023-03-19T13:22:14.529Z,99120.75
2023-03-19T13:32:29.527Z,99119.72
2023-03-19T13:42:42.699Z,99124.97
2023-03-19T13:52:44.884Z,99119.03
2023-03-19T14:02:47.840Z,99123.66
2023-03-19T14:12:49.242Z,99123.25
2023-03-19T14:23:11.899Z,99128.06
2023-03-19T14:33:20.235Z,99125.84
2023-03-19T14:43:46.131Z,99126.66
2023-03-19T14:53:52.444Z,99128.78
2023-03-19T15:03:59.330Z,99130.66
2023-03-19T15:14:06.372Z,99135.91
2023-03-19T15:24:13.593Z,99165.78
2023-03-19T15:34:26.067Z,99171.03
2023-03-19T15:44:48.825Z,99185.53
2023-03-19T15:54:50.283Z,99188.88
2023-03-19T16:05:18.094Z,99195.28
2023-03-19T16:15:31.482Z,99208.13
2023-03-19T16:25:33.203Z,99219.13
2023-03-19T16:35:35.030Z,99243.78
2023-03-19T16:45:36.806Z,99248.31
2023-03-19T16:55:39.120Z,99246.47
2023-03-19T17:05:40.768Z,99248.13
2023-03-19T17:15:42.280Z,99243.56
2023-03-19T17:25:44.857Z,99242.31
2023-03-19T17:35:46.254Z,99276.03
2023-03-19T17:45:48.540Z,99290.13
2023-03-19T17:55:50.110Z,99306.88
2023-03-19T18:05:51.745Z,99329.88
2023-03-19T18:15:53.143Z,99324.44
2023-03-19T18:25:54.705Z,99327.16
2023-03-19T18:35:56.875Z,99340.34
2023-03-19T18:45:58.282Z,99350.69
2023-03-19T18:56:02.164Z,99358.78
2023-03-19T19:06:03.795Z,99378.03
2023-03-19T19:16:05.922Z,99383.59
2023-03-19T19:26:07.323Z,99393.75
2023-03-19T19:36:09.916Z,99399.50
2023-03-19T19:46:12.385Z,99418.56
2023-03-19T19:56:18.686Z,99425.34
2023-03-19T20:06:20.382Z,99435.25
2023-03-19T20:16:23.160Z,99438.38
2023-03-19T20:26:25.237Z,99455.91
2023-03-19T20:36:26.758Z,99466.69
2023-03-19T20:46:28.538Z,99479.31
2023-03-19T20:56:30.596Z,99480.53
2023-03-19T21:06:46.048Z,99491.69
2023-03-19T21:16:53.319Z,99488.78
2023-03-19T21:26:55.379Z,99508.84
2023-03-19T21:36:56.860Z,99511.91
2023-03-19T21:46:58.546Z,99518.28
2023-03-19T21:57:00.307Z,99518.47
2023-03-19T22:07:02.111Z,99520.34
2023-03-19T22:17:05.672Z,99533.16
2023-03-19T22:27:10.312Z,99538.91
2023-03-19T22:37:25.895Z,99543.84
2023-03-19T22:47:27.366Z,99549.44
2023-03-19T22:57:28.794Z,99549.00
2023-03-19T23:07:30.452Z,99546.69
2023-03-19T23:17:32.016Z,99562.53
2023-03-19T23:27:33.545Z,99574.97
2023-03-19T23:37:34.925Z,99585.06
2023-03-19T23:47:36.737Z,99604.28
2023-03-19T23:57:38.145Z,99606.34
